sensor_id;sensor_type;location;lat;lon;timestamp;P1;durP1;ratioP1;P2;durP2;ratioP2
2259;SDS011;333;48.800;9.530;2023-04-03T00:02:01;4.83;;;4.10;;
2259;SDS011;333;48.800;9.530;2023-04-03T00:04:29;4.23;;;3.80;;
2259;SDS011;333;48.800;9.530;2023-04-03T00:06:55;3.57;;;3.27;;
2259;SDS011;333;48.800;9.530;2023-04-03T00:09:22;3.53;;;3.23;;
2259;SDS011;333;48.800;9.530;2023-04-03T00:11:50;3.50;;;3.20;;
2259;SDS011;333;48.800;9.530;2023-04-03T00:14:17;3.33;;;3.03;;
2259;SDS011;333;48.800;9.530;2023-04-03T00:16:44;3.73;;;3.40;;
2259;SDS011;333;48.800;9.530;2023-04-03T00:19:12;4.00;;;3.60;;
2259;SDS011;333;48.800;9.530;2023-04-03T00:21:39;5.23;;;3.70;;
2259;SDS011;333;48.800;9.530;2023-04-03T00:24:06;4.53;;;4.13;;
2259;SDS011;333;48.800;9.530;2023-04-03T00:26:33;3.50;;;3.20;;
2259;SDS011;333;48.800;9.530;2023-04-03T00:29:00;3.80;;;3.50;;
2259;SDS011;333;48.800;9.530;2023-04-03T00:31:27;6.20;;;3.50;;
2259;SDS011;333;48.800;9.530;2023-04-03T00:33:55;4.53;;;4.13;;
2259;SDS011;333;48.800;9.530;2023-04-03T00:36:23;4.57;;;3.63;;
2259;SDS011;333;48.800;9.530;2023-04-03T00:38:50;4.57;;;4.20;;
2259;SDS011;333;48.800;9.530;2023-04-03T00:41:17;6.63;;;4.50;;
2259;SDS011;333;48.800;9.530;2023-04-03T00:43:45;3.93;;;3.50;;
2259;SDS011;333;48.800;9.530;2023-04-03T00:46:12;4.23;;;3.50;;
2259;SDS011;333;48.800;9.530;2023-04-03T00:48:40;5.20;;;3.57;;
2259;SDS011;333;48.800;9.530;2023-04-03T00:51:09;4.70;;;4.30;;
2259;SDS011;333;48.800;9.530;2023-04-03T00:53:41;4.30;;;3.90;;
2259;SDS011;333;48.800;9.530;2023-04-03T00:56:12;4.00;;;3.70;;
2259;SDS011;333;48.800;9.530;2023-04-03T00:58:44;4.60;;;4.20;;
2259;SDS011;333;48.800;9.530;2023-04-03T01:01:15;4.20;;;3.40;;
2259;SDS011;333;48.800;9.530;2023-04-03T01:03:46;3.47;;;3.10;;
2259;SDS011;333;48.800;9.530;2023-04-03T01:06:13;3.77;;;3.47;;
2259;SDS011;333;48.800;9.530;2023-04-03T01:08:44;4.13;;;3.73;;
2259;SDS011;333;48.800;9.530;2023-04-03T01:11:14;4.23;;;3.73;;
2259;SDS011;333;48.800;9.530;2023-04-03T01:13:41;4.40;;;3.90;;
2259;SDS011;333;48.800;9.530;2023-04-03T01:16:08;3.73;;;3.40;;
2259;SDS011;333;48.800;9.530;2023-04-03T01:18:36;5.80;;;4.60;;
2259;SDS011;333;48.800;9.530;2023-04-03T01:21:11;5.70;;;4.03;;
2259;SDS011;333;48.800;9.530;2023-04-03T01:24:07;5.40;;;3.30;;
2259;SDS011;333;48.800;9.530;2023-04-03T01:27:06;4.60;;;4.00;;
2259;SDS011;333;48.800;9.530;2023-04-03T01:29:35;4.13;;;3.13;;
2259;SDS011;333;48.800;9.530;2023-04-03T01:32:04;4.47;;;3.53;;
2259;SDS011;333;48.800;9.530;2023-04-03T01:34:31;6.10;;;3.90;;
2259;SDS011;333;48.800;9.530;2023-04-03T01:36:59;3.83;;;3.53;;
2259;SDS011;333;48.800;9.530;2023-04-03T01:39:26;3.90;;;3.60;;
2259;SDS011;333;48.800;9.530;2023-04-03T01:41:53;5.77;;;3.90;;
2259;SDS011;333;48.800;9.530;2023-04-03T01:44:20;7.73;;;4.80;;
2259;SDS011;333;48.800;9.530;2023-04-03T01:46:47;4.27;;;3.90;;
2259;SDS011;333;48.800;9.530;2023-04-03T01:49:15;4.30;;;3.90;;
2259;SDS011;333;48.800;9.530;2023-04-03T01:51:42;3.70;;;3.40;;
2259;SDS011;333;48.800;9.530;2023-04-03T01:54:09;4.80;;;3.10;;
2259;SDS011;333;48.800;9.530;2023-04-03T01:56:36;3.60;;;3.30;;
2259;SDS011;333;48.800;9.530;2023-04-03T01:59:04;4.63;;;3.53;;
2259;SDS011;333;48.800;9.530;2023-04-03T02:01:31;5.70;;;4.30;;
2259;SDS011;333;48.800;9.530;2023-04-03T02:03:58;4.93;;;3.70;;
2259;SDS011;333;48.800;9.530;2023-04-03T02:06:26;5.37;;;4.27;;
2259;SDS011;333;48.800;9.530;2023-04-03T02:08:53;3.70;;;3.40;;
2259;SDS011;333;48.800;9.530;2023-04-03T02:11:20;4.80;;;4.07;;
2259;SDS011;333;48.800;9.530;2023-04-03T02:13:47;3.70;;;3.40;;
2259;SDS011;333;48.800;9.530;2023-04-03T02:16:14;3.40;;;2.87;;
2259;SDS011;333;48.800;9.530;2023-04-03T02:18:41;4.50;;;3.47;;
2259;SDS011;333;48.800;9.530;2023-04-03T02:21:08;3.13;;;2.93;;
2259;SDS011;333;48.800;9.530;2023-04-03T02:23:37;4.80;;;3.87;;
2259;SDS011;333;48.800;9.530;2023-04-03T02:26:05;3.80;;;3.40;;
2259;SDS011;333;48.800;9.530;2023-04-03T02:28:33;5.50;;;3.30;;
2259;SDS011;333;48.800;9.530;2023-04-03T02:31:01;3.13;;;2.93;;
2259;SDS011;333;48.800;9.530;2023-04-03T02:33:28;3.90;;;3.60;;
2259;SDS011;333;48.800;9.530;2023-04-03T02:35:55;4.83;;;4.20;;
2259;SDS011;333;48.800;9.530;2023-04-03T02:38:23;3.50;;;3.20;;
2259;SDS011;333;48.800;9.530;2023-04-03T02:40:52;3.37;;;3.07;;
2259;SDS011;333;48.800;9.530;2023-04-03T02:43:20;4.00;;;3.63;;
2259;SDS011;333;48.800;9.530;2023-04-03T02:45:47;4.30;;;3.57;;
2259;SDS011;333;48.800;9.530;2023-04-03T02:48:14;3.07;;;2.87;;
2259;SDS011;333;48.800;9.530;2023-04-03T02:50:42;5.23;;;3.57;;
2259;SDS011;333;48.800;9.530;2023-04-03T02:53:09;3.97;;;3.40;;
2259;SDS011;333;48.800;9.530;2023-04-03T02:55:35;4.00;;;3.70;;
2259;SDS011;333;48.800;9.530;2023-04-03T02:58:04;3.30;;;3.00;;
2259;SDS011;333;48.800;9.530;2023-04-03T03:00:31;5.70;;;3.73;;
2259;SDS011;333;48.800;9.530;2023-04-03T03:02:58;3.70;;;3.40;;
2259;SDS011;333;48.800;9.530;2023-04-03T03:05:25;3.67;;;3.30;;
2259;SDS011;333;48.800;9.530;2023-04-03T03:07:52;3.80;;;2.87;;
2259;SDS011;333;48.800;9.530;2023-04-03T03:10:20;4.03;;;3.73;;
2259;SDS011;333;48.800;9.530;2023-04-03T03:12:47;3.30;;;3.00;;
2259;SDS011;333;48.800;9.530;2023-04-03T03:15:16;3.27;;;2.90;;
2259;SDS011;333;48.800;9.530;2023-04-03T03:17:44;6.13;;;3.30;;
2259;SDS011;333;48.800;9.530;2023-04-03T03:20:12;4.80;;;2.90;;
2259;SDS011;333;48.800;9.530;2023-04-03T03:22:40;3.40;;;3.10;;
2259;SDS011;333;48.800;9.530;2023-04-03T03:25:07;4.00;;;3.70;;
2259;SDS011;333;48.800;9.530;2023-04-03T03:27:35;3.30;;;3.00;;
2259;SDS011;333;48.800;9.530;2023-04-03T03:30:02;3.33;;;3.00;;
2259;SDS011;333;48.800;9.530;2023-04-03T03:32:31;3.50;;;3.20;;
2259;SDS011;333;48.800;9.530;2023-04-03T03:34:58;3.77;;;3.30;;
2259;SDS011;333;48.800;9.530;2023-04-03T03:37:25;3.00;;;2.80;;
2259;SDS011;333;48.800;9.530;2023-04-03T03:39:52;2.83;;;2.63;;
2259;SDS011;333;48.800;9.530;2023-04-03T03:42:19;4.10;;;3.70;;
2259;SDS011;333;48.800;9.530;2023-04-03T03:44:47;4.83;;;3.33;;
2259;SDS011;333;48.800;9.530;2023-04-03T03:47:14;2.80;;;2.60;;
2259;SDS011;333;48.800;9.530;2023-04-03T03:49:42;3.23;;;3.03;;
2259;SDS011;333;48.800;9.530;2023-04-03T03:52:09;4.17;;;3.10;;
2259;SDS011;333;48.800;9.530;2023-04-03T03:54:36;3.13;;;2.93;;
2259;SDS011;333;48.800;9.530;2023-04-03T03:57:03;4.70;;;3.70;;
2259;SDS011;333;48.800;9.530;2023-04-03T03:59:31;3.83;;;3.53;;
2259;SDS011;333;48.800;9.530;2023-04-03T04:01:58;2.93;;;2.70;;
2259;SDS011;333;48.800;9.530;2023-04-03T04:04:25;3.67;;;2.40;;
2259;SDS011;333;48.800;9.530;2023-04-03T04:06:53;5.90;;;3.47;;
2259;SDS011;333;48.800;9.530;2023-04-03T04:09:20;6.50;;;3.23;;
2259;SDS011;333;48.800;9.530;2023-04-03T04:11:47;6.17;;;3.47;;
2259;SDS011;333;48.800;9.530;2023-04-03T04:14:14;3.20;;;2.93;;
2259;SDS011;333;48.800;9.530;2023-04-03T04:16:41;3.20;;;2.90;;
2259;SDS011;333;48.800;9.530;2023-04-03T04:19:08;2.97;;;2.67;;
2259;SDS011;333;48.800;9.530;2023-04-03T04:21:35;3.60;;;3.30;;
2259;SDS011;333;48.800;9.530;2023-04-03T04:24:04;3.63;;;3.03;;
2259;SDS011;333;48.800;9.530;2023-04-03T04:26:32;4.80;;;3.70;;
2259;SDS011;333;48.800;9.530;2023-04-03T04:28:59;3.83;;;3.37;;
2259;SDS011;333;48.800;9.530;2023-04-03T04:31:26;3.37;;;2.60;;
2259;SDS011;333;48.800;9.530;2023-04-03T04:33:53;3.50;;;3.20;;
2259;SDS011;333;48.800;9.530;2023-04-03T04:36:20;4.70;;;4.30;;
2259;SDS011;333;48.800;9.530;2023-04-03T04:38:47;3.97;;;3.67;;
2259;SDS011;333;48.800;9.530;2023-04-03T04:41:19;3.30;;;3.10;;
2259;SDS011;333;48.800;9.530;2023-04-03T04:43:47;3.43;;;3.23;;
2259;SDS011;333;48.800;9.530;2023-04-03T04:46:14;3.17;;;2.60;;
2259;SDS011;333;48.800;9.530;2023-04-03T04:48:42;4.30;;;3.90;;
2259;SDS011;333;48.800;9.530;2023-04-03T04:51:09;4.60;;;4.20;;
2259;SDS011;333;48.800;9.530;2023-04-03T04:53:36;3.70;;;3.37;;
2259;SDS011;333;48.800;9.530;2023-04-03T04:56:04;3.10;;;2.90;;
2259;SDS011;333;48.800;9.530;2023-04-03T04:58:32;2.97;;;2.70;;
2259;SDS011;333;48.800;9.530;2023-04-03T05:01:00;3.37;;;3.07;;
2259;SDS011;333;48.800;9.530;2023-04-03T05:03:27;3.50;;;3.20;;
2259;SDS011;333;48.800;9.530;2023-04-03T05:05:54;4.30;;;3.13;;
2259;SDS011;333;48.800;9.530;2023-04-03T05:08:21;5.37;;;2.87;;
2259;SDS011;333;48.800;9.530;2023-04-03T05:10:48;2.73;;;2.50;;
2259;SDS011;333;48.800;9.530;2023-04-03T05:13:16;3.90;;;2.80;;
2259;SDS011;333;48.800;9.530;2023-04-03T05:15:44;3.97;;;2.97;;
2259;SDS011;333;48.800;9.530;2023-04-03T05:18:12;3.50;;;3.00;;
2259;SDS011;333;48.800;9.530;2023-04-03T05:20:39;3.37;;;3.17;;
2259;SDS011;333;48.800;9.530;2023-04-03T05:23:08;4.23;;;3.83;;
2259;SDS011;333;48.800;9.530;2023-04-03T05:25:37;3.43;;;3.10;;
2259;SDS011;333;48.800;9.530;2023-04-03T05:28:04;3.20;;;2.70;;
2259;SDS011;333;48.800;9.530;2023-04-03T05:30:32;2.77;;;2.57;;
2259;SDS011;333;48.800;9.530;2023-04-03T05:33:00;3.00;;;2.80;;
2259;SDS011;333;48.800;9.530;2023-04-03T05:35:28;3.50;;;3.07;;
2259;SDS011;333;48.800;9.530;2023-04-03T05:37:55;4.37;;;3.80;;
2259;SDS011;333;48.800;9.530;2023-04-03T05:40:22;4.10;;;3.30;;
2259;SDS011;333;48.800;9.530;2023-04-03T05:42:49;3.00;;;2.80;;
2259;SDS011;333;48.800;9.530;2023-04-03T05:45:16;4.13;;;3.50;;
2259;SDS011;333;48.800;9.530;2023-04-03T05:47:43;3.53;;;3.20;;
2259;SDS011;333;48.800;9.530;2023-04-03T05:50:12;3.67;;;3.30;;
2259;SDS011;333;48.800;9.530;2023-04-03T05:52:40;6.90;;;2.93;;
2259;SDS011;333;48.800;9.530;2023-04-03T05:55:10;3.33;;;2.93;;
2259;SDS011;333;48.800;9.530;2023-04-03T05:57:37;2.97;;;2.77;;
2259;SDS011;333;48.800;9.530;2023-04-03T06:00:04;3.40;;;3.10;;
2259;SDS011;333;48.800;9.530;2023-04-03T06:02:32;3.07;;;2.73;;
2259;SDS011;333;48.800;9.530;2023-04-03T06:04:59;4.17;;;3.60;;
2259;SDS011;333;48.800;9.530;2023-04-03T06:07:27;6.80;;;4.50;;
2259;SDS011;333;48.800;9.530;2023-04-03T06:09:55;2.67;;;2.47;;
2259;SDS011;333;48.800;9.530;2023-04-03T06:12:22;4.90;;;4.40;;
2259;SDS011;333;48.800;9.530;2023-04-03T06:14:50;3.77;;;3.47;;
2259;SDS011;333;48.800;9.530;2023-04-03T06:17:17;3.73;;;2.90;;
2259;SDS011;333;48.800;9.530;2023-04-03T06:19:45;3.20;;;2.60;;
2259;SDS011;333;48.800;9.530;2023-04-03T06:22:12;2.60;;;2.40;;
2259;SDS011;333;48.800;9.530;2023-04-03T06:24:41;2.50;;;2.30;;
2259;SDS011;333;48.800;9.530;2023-04-03T06:27:09;3.03;;;2.63;;
2259;SDS011;333;48.800;9.530;2023-04-03T06:29:37;3.40;;;3.10;;
2259;SDS011;333;48.800;9.530;2023-04-03T06:32:04;3.30;;;3.00;;
2259;SDS011;333;48.800;9.530;2023-04-03T06:34:31;5.03;;;2.87;;
2259;SDS011;333;48.800;9.530;2023-04-03T06:36:58;3.07;;;2.77;;
2259;SDS011;333;48.800;9.530;2023-04-03T06:39:25;3.00;;;2.80;;
2259;SDS011;333;48.800;9.530;2023-04-03T06:41:54;4.87;;;3.00;;
2259;SDS011;333;48.800;9.530;2023-04-03T06:44:21;2.80;;;2.60;;
2259;SDS011;333;48.800;9.530;2023-04-03T06:46:48;3.80;;;3.50;;
2259;SDS011;333;48.800;9.530;2023-04-03T06:49:16;3.10;;;2.80;;
2259;SDS011;333;48.800;9.530;2023-04-03T06:51:43;2.73;;;2.30;;
2259;SDS011;333;48.800;9.530;2023-04-03T06:54:10;3.53;;;2.93;;
2259;SDS011;333;48.800;9.530;2023-04-03T06:56:39;3.40;;;3.10;;
2259;SDS011;333;48.800;9.530;2023-04-03T06:59:09;3.80;;;3.00;;
2259;SDS011;333;48.800;9.530;2023-04-03T07:01:36;4.00;;;3.07;;
2259;SDS011;333;48.800;9.530;2023-04-03T07:04:03;4.73;;;3.23;;
2259;SDS011;333;48.800;9.530;2023-04-03T07:06:30;4.13;;;2.50;;
2259;SDS011;333;48.800;9.530;2023-04-03T07:08:58;3.50;;;3.20;;
2259;SDS011;333;48.800;9.530;2023-04-03T07:11:26;3.33;;;2.63;;
2259;SDS011;333;48.800;9.530;2023-04-03T07:13:53;3.77;;;3.37;;
2259;SDS011;333;48.800;9.530;2023-04-03T07:16:23;3.73;;;2.90;;
2259;SDS011;333;48.800;9.530;2023-04-03T07:18:50;3.77;;;3.57;;
2259;SDS011;333;48.800;9.530;2023-04-03T07:21:17;4.30;;;2.83;;
2259;SDS011;333;48.800;9.530;2023-04-03T07:23:44;3.50;;;3.20;;
2259;SDS011;333;48.800;9.530;2023-04-03T07:26:11;3.90;;;3.13;;
2259;SDS011;333;48.800;9.530;2023-04-03T07:28:38;4.77;;;3.10;;
2259;SDS011;333;48.800;9.530;2023-04-03T07:31:07;3.17;;;2.87;;
2259;SDS011;333;48.800;9.530;2023-04-03T07:33:40;7.57;;;3.37;;
2259;SDS011;333;48.800;9.530;2023-04-03T07:36:08;2.80;;;2.60;;
2259;SDS011;333;48.800;9.530;2023-04-03T07:38:36;3.53;;;2.57;;
2259;SDS011;333;48.800;9.530;2023-04-03T07:41:04;4.13;;;3.67;;
2259;SDS011;333;48.800;9.530;2023-04-03T07:43:31;3.30;;;2.90;;
2259;SDS011;333;48.800;9.530;2023-04-03T07:45:59;3.30;;;2.87;;
2259;SDS011;333;48.800;9.530;2023-04-03T07:48:26;4.33;;;3.00;;
2259;SDS011;333;48.800;9.530;2023-04-03T07:50:58;3.77;;;3.17;;
2259;SDS011;333;48.800;9.530;2023-04-03T07:53:26;3.67;;;3.37;;
2259;SDS011;333;48.800;9.530;2023-04-03T07:55:53;3.57;;;3.27;;
2259;SDS011;333;48.800;9.530;2023-04-03T07:58:22;3.70;;;3.03;;
2259;SDS011;333;48.800;9.530;2023-04-03T08:00:49;3.70;;;3.20;;
2259;SDS011;333;48.800;9.530;2023-04-03T08:03:16;3.43;;;2.80;;
2259;SDS011;333;48.800;9.530;2023-04-03T08:05:44;4.37;;;3.73;;
2259;SDS011;333;48.800;9.530;2023-04-03T08:08:14;4.23;;;3.43;;
2259;SDS011;333;48.800;9.530;2023-04-03T08:10:43;4.40;;;3.57;;
2259;SDS011;333;48.800;9.530;2023-04-03T08:13:13;3.67;;;3.37;;
2259;SDS011;333;48.800;9.530;2023-04-03T08:15:40;6.43;;;4.23;;
2259;SDS011;333;48.800;9.530;2023-04-03T08:18:07;4.30;;;3.43;;
2259;SDS011;333;48.800;9.530;2023-04-03T08:20:35;4.17;;;3.50;;
2259;SDS011;333;48.800;9.530;2023-04-03T08:23:05;5.83;;;2.53;;
2259;SDS011;333;48.800;9.530;2023-04-03T08:25:34;3.10;;;2.80;;
2259;SDS011;333;48.800;9.530;2023-04-03T08:28:04;4.30;;;3.50;;
2259;SDS011;333;48.800;9.530;2023-04-03T08:30:31;6.53;;;4.20;;
2259;SDS011;333;48.800;9.530;2023-04-03T08:32:59;3.77;;;2.70;;
2259;SDS011;333;48.800;9.530;2023-04-03T08:35:27;6.43;;;3.63;;
2259;SDS011;333;48.800;9.530;2023-04-03T08:37:54;3.03;;;2.83;;
2259;SDS011;333;48.800;9.530;2023-04-03T08:40:21;3.63;;;2.87;;
2259;SDS011;333;48.800;9.530;2023-04-03T08:42:54;3.27;;;2.97;;
2259;SDS011;333;48.800;9.530;2023-04-03T08:45:33;3.30;;;3.00;;
2259;SDS011;333;48.800;9.530;2023-04-03T08:48:11;3.30;;;3.00;;
2259;SDS011;333;48.800;9.530;2023-04-03T08:50:41;4.40;;;3.23;;
2259;SDS011;333;48.800;9.530;2023-04-03T08:53:14;4.63;;;3.20;;
2259;SDS011;333;48.800;9.530;2023-04-03T08:55:42;2.97;;;2.77;;
2259;SDS011;333;48.800;9.530;2023-04-03T08:58:14;5.43;;;2.90;;
2259;SDS011;333;48.800;9.530;2023-04-03T09:00:44;3.60;;;3.30;;
2259;SDS011;333;48.800;9.530;2023-04-03T09:03:14;5.03;;;2.60;;
2259;SDS011;333;48.800;9.530;2023-04-03T09:05:44;5.23;;;3.17;;
2259;SDS011;333;48.800;9.530;2023-04-03T09:08:16;3.50;;;3.30;;
2259;SDS011;333;48.800;9.530;2023-04-03T09:10:48;3.73;;;3.13;;
2259;SDS011;333;48.800;9.530;2023-04-03T09:13:22;5.03;;;3.27;;
2259;SDS011;333;48.800;9.530;2023-04-03T09:15:53;2.97;;;2.67;;
2259;SDS011;333;48.800;9.530;2023-04-03T09:18:22;2.90;;;2.70;;
2259;SDS011;333;48.800;9.530;2023-04-03T09:20:54;4.20;;;3.00;;
2259;SDS011;333;48.800;9.530;2023-04-03T09:23:30;3.10;;;2.90;;
2259;SDS011;333;48.800;9.530;2023-04-03T09:26:05;4.77;;;3.03;;
2259;SDS011;333;48.800;9.530;2023-04-03T09:28:37;7.80;;;3.37;;
2259;SDS011;333;48.800;9.530;2023-04-03T09:31:11;2.70;;;2.50;;
2259;SDS011;333;48.800;9.530;2023-04-03T09:33:44;5.23;;;2.63;;
2259;SDS011;333;48.800;9.530;2023-04-03T09:36:12;3.00;;;2.67;;
2259;SDS011;333;48.800;9.530;2023-04-03T09:38:39;2.73;;;2.53;;
2259;SDS011;333;48.800;9.530;2023-04-03T09:41:11;2.73;;;2.53;;
2259;SDS011;333;48.800;9.530;2023-04-03T09:43:51;3.83;;;3.00;;
2259;SDS011;333;48.800;9.530;2023-04-03T09:46:28;2.40;;;2.10;;
2259;SDS011;333;48.800;9.530;2023-04-03T09:48:57;5.10;;;2.40;;
2259;SDS011;333;48.800;9.530;2023-04-03T09:51:26;2.67;;;2.23;;
2259;SDS011;333;48.800;9.530;2023-04-03T09:53:54;3.40;;;2.40;;
2259;SDS011;333;48.800;9.530;2023-04-03T09:56:23;4.57;;;2.60;;
2259;SDS011;333;48.800;9.530;2023-04-03T09:59:05;2.43;;;2.23;;
2259;SDS011;333;48.800;9.530;2023-04-03T10:01:35;2.30;;;2.20;;
2259;SDS011;333;48.800;9.530;2023-04-03T10:04:07;3.07;;;2.50;;
2259;SDS011;333;48.800;9.530;2023-04-03T10:06:36;5.77;;;2.60;;
2259;SDS011;333;48.800;9.530;2023-04-03T10:09:10;3.40;;;2.80;;
2259;SDS011;333;48.800;9.530;2023-04-03T10:11:56;3.30;;;2.10;;
2259;SDS011;333;48.800;9.530;2023-04-03T10:14:27;2.53;;;2.33;;
2259;SDS011;333;48.800;9.530;2023-04-03T10:16:56;3.03;;;2.30;;
2259;SDS011;333;48.800;9.530;2023-04-03T10:19:34;5.07;;;2.57;;
2259;SDS011;333;48.800;9.530;2023-04-03T10:22:10;2.93;;;2.73;;
2259;SDS011;333;48.800;9.530;2023-04-03T10:24:47;3.50;;;2.63;;
2259;SDS011;333;48.800;9.530;2023-04-03T10:27:29;3.53;;;2.87;;
2259;SDS011;333;48.800;9.530;2023-04-03T10:30:13;2.50;;;1.93;;
2259;SDS011;333;48.800;9.530;2023-04-03T10:32:58;2.40;;;2.20;;
2259;SDS011;333;48.800;9.530;2023-04-03T10:35:39;2.30;;;1.80;;
2259;SDS011;333;48.800;9.530;2023-04-03T10:38:14;2.57;;;1.80;;
2259;SDS011;333;48.800;9.530;2023-04-03T10:40:47;4.13;;;2.53;;
2259;SDS011;333;48.800;9.530;2023-04-03T10:43:21;2.30;;;2.20;;
2259;SDS011;333;48.800;9.530;2023-04-03T10:45:59;2.20;;;2.03;;
2259;SDS011;333;48.800;9.530;2023-04-03T10:48:33;2.67;;;1.87;;
2259;SDS011;333;48.800;9.530;2023-04-03T10:51:23;2.10;;;1.90;;
2259;SDS011;333;48.800;9.530;2023-04-03T10:53:55;2.40;;;1.50;;
2259;SDS011;333;48.800;9.530;2023-04-03T10:56:30;2.23;;;2.03;;
2259;SDS011;333;48.800;9.530;2023-04-03T10:59:02;1.90;;;1.80;;
2259;SDS011;333;48.800;9.530;2023-04-03T11:01:44;3.20;;;2.07;;
2259;SDS011;333;48.800;9.530;2023-04-03T11:04:14;3.20;;;1.97;;
2259;SDS011;333;48.800;9.530;2023-04-03T11:06:44;1.67;;;1.40;;
2259;SDS011;333;48.800;9.530;2023-04-03T11:09:18;2.30;;;1.80;;
2259;SDS011;333;48.800;9.530;2023-04-03T11:11:49;2.10;;;1.90;;
2259;SDS011;333;48.800;9.530;2023-04-03T11:14:22;3.57;;;2.00;;
2259;SDS011;333;48.800;9.530;2023-04-03T11:16:59;2.17;;;1.97;;
2259;SDS011;333;48.800;9.530;2023-04-03T11:19:34;2.30;;;1.80;;
2259;SDS011;333;48.800;9.530;2023-04-03T11:22:06;3.13;;;2.30;;
2259;SDS011;333;48.800;9.530;2023-04-03T11:24:38;2.17;;;1.83;;
2259;SDS011;333;48.800;9.530;2023-04-03T11:27:08;5.23;;;1.90;;
2259;SDS011;333;48.800;9.530;2023-04-03T11:29:42;5.57;;;1.97;;
2259;SDS011;333;48.800;9.530;2023-04-03T11:32:20;1.60;;;1.50;;
2259;SDS011;333;48.800;9.530;2023-04-03T11:34:59;4.33;;;1.83;;
2259;SDS011;333;48.800;9.530;2023-04-03T11:37:29;6.20;;;1.93;;
2259;SDS011;333;48.800;9.530;2023-04-03T11:40:02;5.47;;;1.80;;
2259;SDS011;333;48.800;9.530;2023-04-03T11:42:33;4.50;;;2.03;;
2259;SDS011;333;48.800;9.530;2023-04-03T11:45:16;2.10;;;1.80;;
2259;SDS011;333;48.800;9.530;2023-04-03T11:47:59;1.83;;;1.73;;
2259;SDS011;333;48.800;9.530;2023-04-03T11:50:31;4.30;;;1.87;;
2259;SDS011;333;48.800;9.530;2023-04-03T11:56:03;2.20;;;2.00;;
2259;SDS011;333;48.800;9.530;2023-04-03T11:59:21;3.67;;;2.10;;
2259;SDS011;333;48.800;9.530;2023-04-03T12:01:50;2.13;;;2.00;;
2259;SDS011;333;48.800;9.530;2023-04-03T12:04:19;2.57;;;2.20;;
2259;SDS011;333;48.800;9.530;2023-04-03T12:12:42;2.73;;;2.17;;
2259;SDS011;333;48.800;9.530;2023-04-03T12:18:40;2.60;;;2.40;;
2259;SDS011;333;48.800;9.530;2023-04-03T12:21:10;2.03;;;1.70;;
2259;SDS011;333;48.800;9.530;2023-04-03T12:26:26;2.77;;;2.33;;
2259;SDS011;333;48.800;9.530;2023-04-03T12:28:56;4.60;;;1.97;;
2259;SDS011;333;48.800;9.530;2023-04-03T12:31:24;5.23;;;2.27;;
2259;SDS011;333;48.800;9.530;2023-04-03T12:34:01;2.30;;;1.67;;
2259;SDS011;333;48.800;9.530;2023-04-03T12:36:42;3.47;;;2.40;;
2259;SDS011;333;48.800;9.530;2023-04-03T12:39:22;3.10;;;1.97;;
2259;SDS011;333;48.800;9.530;2023-04-03T12:42:16;2.30;;;2.10;;
2259;SDS011;333;48.800;9.530;2023-04-03T12:44:53;2.80;;;2.00;;
2259;SDS011;333;48.800;9.530;2023-04-03T12:47:28;1.83;;;1.73;;
2259;SDS011;333;48.800;9.530;2023-04-03T12:49:58;1.90;;;1.80;;
2259;SDS011;333;48.800;9.530;2023-04-03T12:52:31;2.50;;;1.87;;
2259;SDS011;333;48.800;9.530;2023-04-03T12:55:03;2.50;;;2.17;;
2259;SDS011;333;48.800;9.530;2023-04-03T12:57:40;2.60;;;2.40;;
2259;SDS011;333;48.800;9.530;2023-04-03T13:00:20;1.93;;;1.83;;
2259;SDS011;333;48.800;9.530;2023-04-03T13:02:52;2.17;;;1.60;;
2259;SDS011;333;48.800;9.530;2023-04-03T13:05:19;3.53;;;2.50;;
2259;SDS011;333;48.800;9.530;2023-04-03T13:07:49;2.40;;;2.20;;
2259;SDS011;333;48.800;9.530;2023-04-03T13:10:22;2.10;;;1.73;;
2259;SDS011;333;48.800;9.530;2023-04-03T13:12:50;2.10;;;1.73;;
2259;SDS011;333;48.800;9.530;2023-04-03T13:15:19;2.30;;;2.00;;
2259;SDS011;333;48.800;9.530;2023-04-03T13:17:47;2.23;;;2.10;;
2259;SDS011;333;48.800;9.530;2023-04-03T13:20:18;2.00;;;1.90;;
2259;SDS011;333;48.800;9.530;2023-04-03T13:22:51;3.23;;;2.00;;
2259;SDS011;333;48.800;9.530;2023-04-03T13:25:24;4.83;;;1.97;;
2259;SDS011;333;48.800;9.530;2023-04-03T13:27:53;4.33;;;2.27;;
2259;SDS011;333;48.800;9.530;2023-04-03T13:30:23;1.93;;;1.83;;
2259;SDS011;333;48.800;9.530;2023-04-03T13:32:54;2.03;;;1.83;;
2259;SDS011;333;48.800;9.530;2023-04-03T13:35:30;2.83;;;2.63;;
2259;SDS011;333;48.800;9.530;2023-04-03T13:38:04;2.27;;;2.13;;
2259;SDS011;333;48.800;9.530;2023-04-03T13:40:48;3.33;;;2.07;;
2259;SDS011;333;48.800;9.530;2023-04-03T13:43:17;4.37;;;2.90;;
2259;SDS011;333;48.800;9.530;2023-04-03T13:45:56;2.77;;;2.57;;
2259;SDS011;333;48.800;9.530;2023-04-03T13:48:34;2.50;;;2.20;;
2259;SDS011;333;48.800;9.530;2023-04-03T13:51:04;2.43;;;1.90;;
2259;SDS011;333;48.800;9.530;2023-04-03T13:53:34;4.53;;;1.90;;
2259;SDS011;333;48.800;9.530;2023-04-03T13:56:13;2.63;;;1.90;;
2259;SDS011;333;48.800;9.530;2023-04-03T13:58:52;2.83;;;2.40;;
2259;SDS011;333;48.800;9.530;2023-04-03T14:01:23;2.00;;;1.90;;
2259;SDS011;333;48.800;9.530;2023-04-03T14:03:53;2.60;;;1.80;;
2259;SDS011;333;48.800;9.530;2023-04-03T14:06:22;3.03;;;1.80;;
2259;SDS011;333;48.800;9.530;2023-04-03T14:08:51;2.07;;;1.97;;
2259;SDS011;333;48.800;9.530;2023-04-03T14:11:19;2.60;;;2.10;;
2259;SDS011;333;48.800;9.530;2023-04-03T14:13:49;2.53;;;2.33;;
2259;SDS011;333;48.800;9.530;2023-04-03T14:16:18;5.00;;;3.00;;
2259;SDS011;333;48.800;9.530;2023-04-03T14:18:47;2.57;;;2.37;;
2259;SDS011;333;48.800;9.530;2023-04-03T14:21:16;2.70;;;2.20;;
2259;SDS011;333;48.800;9.530;2023-04-03T14:23:46;4.40;;;2.80;;
2259;SDS011;333;48.800;9.530;2023-04-03T14:26:15;3.00;;;2.80;;
2259;SDS011;333;48.800;9.530;2023-04-03T14:28:44;2.27;;;2.00;;
2259;SDS011;333;48.800;9.530;2023-04-03T14:31:12;2.43;;;2.23;;
2259;SDS011;333;48.800;9.530;2023-04-03T14:33:40;4.20;;;2.23;;
2259;SDS011;333;48.800;9.530;2023-04-03T14:36:11;4.63;;;2.50;;
2259;SDS011;333;48.800;9.530;2023-04-03T14:38:40;2.27;;;2.07;;
2259;SDS011;333;48.800;9.530;2023-04-03T14:41:09;3.13;;;2.20;;
2259;SDS011;333;48.800;9.530;2023-04-03T14:43:39;3.00;;;2.10;;
2259;SDS011;333;48.800;9.530;2023-04-03T14:46:09;6.00;;;2.27;;
2259;SDS011;333;48.800;9.530;2023-04-03T14:48:39;1.87;;;1.63;;
2259;SDS011;333;48.800;9.530;2023-04-03T14:51:06;3.30;;;2.17;;
2259;SDS011;333;48.800;9.530;2023-04-03T14:53:35;5.53;;;2.17;;
2259;SDS011;333;48.800;9.530;2023-04-03T14:56:04;2.63;;;2.07;;
2259;SDS011;333;48.800;9.530;2023-04-03T14:58:37;3.90;;;2.27;;
2259;SDS011;333;48.800;9.530;2023-04-03T15:01:05;2.17;;;1.93;;
2259;SDS011;333;48.800;9.530;2023-04-03T15:03:32;3.03;;;2.40;;
2259;SDS011;333;48.800;9.530;2023-04-03T15:05:59;2.17;;;1.97;;
2259;SDS011;333;48.800;9.530;2023-04-03T15:08:26;2.53;;;2.33;;
2259;SDS011;333;48.800;9.530;2023-04-03T15:10:55;4.57;;;2.80;;
2259;SDS011;333;48.800;9.530;2023-04-03T15:13:23;3.23;;;2.50;;
2259;SDS011;333;48.800;9.530;2023-04-03T15:15:51;3.10;;;2.27;;
2259;SDS011;333;48.800;9.530;2023-04-03T15:18:20;2.43;;;2.23;;
2259;SDS011;333;48.800;9.530;2023-04-03T15:20:51;3.10;;;2.07;;
2259;SDS011;333;48.800;9.530;2023-04-03T15:23:18;2.40;;;2.20;;
2259;SDS011;333;48.800;9.530;2023-04-03T15:25:46;3.03;;;2.17;;
2259;SDS011;333;48.800;9.530;2023-04-03T15:28:17;4.57;;;2.40;;
2259;SDS011;333;48.800;9.530;2023-04-03T15:30:48;2.30;;;2.10;;
2259;SDS011;333;48.800;9.530;2023-04-03T15:33:16;2.50;;;2.30;;
2259;SDS011;333;48.800;9.530;2023-04-03T15:35:44;2.00;;;1.73;;
2259;SDS011;333;48.800;9.530;2023-04-03T15:38:11;3.30;;;2.07;;
2259;SDS011;333;48.800;9.530;2023-04-03T15:40:38;2.33;;;2.23;;
2259;SDS011;333;48.800;9.530;2023-04-03T15:43:06;2.70;;;2.50;;
2259;SDS011;333;48.800;9.530;2023-04-03T15:45:33;3.90;;;2.50;;
2259;SDS011;333;48.800;9.530;2023-04-03T15:48:01;1.83;;;1.73;;
2259;SDS011;333;48.800;9.530;2023-04-03T15:50:29;4.60;;;2.07;;
2259;SDS011;333;48.800;9.530;2023-04-03T15:52:58;1.70;;;1.60;;
2259;SDS011;333;48.800;9.530;2023-04-03T15:55:27;3.03;;;1.90;;
2259;SDS011;333;48.800;9.530;2023-04-03T15:57:56;2.10;;;2.00;;
2259;SDS011;333;48.800;9.530;2023-04-03T16:00:24;2.77;;;2.10;;
2259;SDS011;333;48.800;9.530;2023-04-03T16:02:52;2.30;;;2.10;;